createdAt,value
2023-05-05T00:00:21.804Z,34.66
2023-05-05T00:01:21.773Z,34.64
2023-05-05T00:02:21.809Z,34.65
2023-05-05T00:03:21.961Z,34.67
2023-05-05T00:04:22.105Z,34.63
2023-05-05T00:05:21.835Z,34.62
2023-05-05T00:06:21.847Z,34.61
2023-05-05T00:07:21.819Z,34.62
2023-05-05T00:08:21.838Z,34.67
2023-05-05T00:09:21.814Z,34.62
2023-05-05T00:10:21.826Z,34.61
2023-05-05T00:11:21.803Z,34.58
2023-05-05T00:12:21.791Z,34.56
2023-05-05T00:13:21.834Z,34.52
2023-05-05T00:14:21.796Z,34.52
2023-05-05T00:15:21.795Z,34.44
2023-05-05T00:16:21.827Z,34.48
2023-05-05T00:17:21.751Z,34.50
2023-05-05T00:18:21.773Z,34.48
2023-05-05T00:19:21.769Z,34.45
2023-05-05T00:20:21.772Z,34.44
2023-05-05T00:21:21.755Z,34.49
2023-05-05T00:22:21.733Z,34.45
2023-05-05T00:23:21.751Z,34.45
2023-05-05T00:24:21.723Z,34.44
2023-05-05T00:25:21.768Z,34.45
2023-05-05T00:26:21.754Z,34.43
2023-05-05T00:27:21.749Z,34.47
2023-05-05T00:28:21.779Z,34.48
2023-05-05T00:29:21.776Z,34.48
2023-05-05T00:30:21.782Z,34.51
2023-05-05T00:31:21.828Z,34.55
2023-05-05T00:32:21.838Z,34.50
2023-05-05T00:33:21.798Z,34.54
2023-05-05T00:34:21.815Z,34.51
2023-05-05T00:35:21.808Z,34.54
2023-05-05T00:36:21.836Z,34.52
2023-05-05T00:37:21.823Z,34.57
2023-05-05T00:38:21.831Z,34.57
2023-05-05T00:39:21.804Z,34.61
2023-05-05T00:40:21.829Z,34.54
2023-05-05T00:41:21.817Z,34.60
2023-05-05T00:42:21.797Z,34.61
2023-05-05T00:43:21.776Z,34.61
2023-05-05T00:44:21.770Z,34.62
2023-05-05T00:45:21.804Z,34.66
2023-05-05T00:46:21.829Z,34.64
2023-05-05T00:47:21.766Z,34.60
2023-05-05T00:48:21.795Z,34.59
2023-05-05T00:49:21.802Z,34.59
2023-05-05T00:50:21.739Z,34.60
2023-05-05T00:51:21.778Z,34.53
2023-05-05T00:52:21.743Z,34.50
2023-05-05T00:53:21.757Z,34.53
2023-05-05T00:54:21.763Z,34.59
2023-05-05T00:55:21.779Z,34.54
2023-05-05T00:56:21.746Z,34.55
2023-05-05T00:57:21.757Z,34.55
2023-05-05T00:58:21.728Z,34.53
2023-05-05T00:59:21.717Z,34.56
2023-05-05T01:00:21.695Z,34.56
2023-05-05T01:01:21.784Z,34.52
2023-05-05T01:02:21.713Z,34.53
2023-05-05T01:03:21.730Z,34.57
2023-05-05T01:04:21.708Z,34.59
2023-05-05T01:05:21.704Z,34.62
2023-05-05T01:06:21.681Z,34.60
2023-05-05T01:07:21.668Z,34.57
2023-05-05T01:08:21.661Z,34.54
2023-05-05T01:09:21.632Z,34.58
2023-05-05T01:10:21.850Z,34.58
2023-05-05T01:11:21.639Z,34.61
2023-05-05T01:12:21.627Z,34.65
2023-05-05T01:13:21.637Z,34.65
2023-05-05T01:14:21.675Z,34.58
2023-05-05T01:15:21.627Z,34.63
2023-05-05T01:16:21.675Z,34.60
2023-05-05T01:17:21.596Z,34.68
2023-05-05T01:18:21.605Z,34.66
2023-05-05T01:19:21.622Z,34.62
2023-05-05T01:20:21.614Z,34.60
2023-05-05T01:21:21.608Z,34.58
2023-05-05T01:22:21.622Z,34.55
2023-05-05T01:23:21.599Z,34.55
2023-05-05T01:24:21.627Z,34.53
2023-05-05T01:25:21.650Z,34.58
2023-05-05T01:26:21.620Z,34.60
2023-05-05T01:27:21.620Z,34.56
2023-05-05T01:28:21.615Z,34.60
2023-05-05T01:29:21.600Z,34.53
2023-05-05T01:30:21.581Z,34.52
2023-05-05T01:31:21.659Z,34.53
2023-05-05T01:32:21.602Z,34.50
2023-05-05T01:33:21.593Z,34.53
2023-05-05T01:34:21.610Z,34.49
2023-05-05T01:35:21.585Z,34.50
2023-05-05T01:36:21.596Z,34.52
2023-05-05T01:37:21.565Z,34.48
2023-05-05T01:38:21.558Z,34.53
2023-05-05T01:39:21.590Z,34.49
2023-05-05T01:40:21.549Z,34.45
2023-05-05T01:41:21.572Z,34.49
2023-05-05T01:42:21.555Z,34.45
2023-05-05T01:43:21.541Z,34.50
2023-05-05T01:44:21.550Z,34.50
2023-05-05T01:45:21.544Z,34.48
2023-05-05T01:46:21.654Z,34.48
2023-05-05T01:47:21.513Z,34.49
2023-05-05T01:48:21.545Z,34.47
2023-05-05T01:49:21.547Z,34.45
2023-05-05T01:50:21.500Z,34.44
2023-05-05T01:51:21.505Z,34.42
2023-05-05T01:52:21.533Z,34.48
2023-05-05T01:53:21.518Z,34.50
2023-05-05T01:54:21.506Z,34.49
2023-05-05T01:55:21.538Z,34.49
2023-05-05T01:56:21.513Z,34.54
2023-05-05T01:57:21.521Z,34.51
2023-05-05T01:58:21.516Z,34.51
2023-05-05T01:59:21.520Z,34.58
2023-05-05T02:00:21.521Z,34.53
2023-05-05T02:01:21.615Z,34.56
2023-05-05T02:02:21.523Z,34.54
2023-05-05T02:03:21.574Z,34.51
2023-05-05T02:04:21.525Z,34.52
2023-05-05T02:05:21.528Z,34.50
2023-05-05T02:06:21.533Z,34.47
2023-05-05T02:07:21.487Z,34.46
2023-05-05T02:08:21.526Z,34.49
2023-05-05T02:09:21.515Z,34.48
2023-05-05T02:10:21.512Z,34.53
2023-05-05T02:11:21.477Z,34.53
2023-05-05T02:12:21.483Z,34.50
2023-05-05T02:13:21.555Z,34.48
2023-05-05T02:14:21.479Z,34.51
2023-05-05T02:15:21.473Z,34.57
2023-05-05T02:16:21.498Z,34.54
2023-05-05T02:17:21.486Z,34.52
2023-05-05T02:18:21.490Z,34.58
2023-05-05T02:19:21.513Z,34.54
2023-05-05T02:20:21.514Z,34.56
2023-05-05T02:21:21.512Z,34.48
2023-05-05T02:22:21.536Z,34.58
2023-05-05T02:23:21.521Z,34.50
2023-05-05T02:24:21.531Z,34.49
2023-05-05T02:25:21.494Z,34.47
2023-05-05T02:26:21.542Z,34.51
2023-05-05T02:27:21.557Z,34.52
2023-05-05T02:28:21.570Z,34.54
2023-05-05T02:29:21.566Z,34.52
2023-05-05T02:30:21.524Z,34.52
2023-05-05T02:31:21.580Z,34.52
2023-05-05T02:32:21.619Z,34.51
2023-05-05T02:33:21.536Z,34.51
2023-05-05T02:34:21.536Z,34.56
2023-05-05T02:35:21.545Z,34.47
2023-05-05T02:36:21.577Z,34.52
2023-05-05T02:37:21.551Z,34.50
2023-05-05T02:38:21.588Z,34.50
2023-05-05T02:39:22.143Z,34.56
2023-05-05T02:40:21.580Z,34.48
2023-05-05T02:41:21.574Z,34.54
2023-05-05T02:42:21.584Z,34.48
2023-05-05T02:43:21.618Z,34.41
2023-05-05T02:44:21.559Z,34.46
2023-05-05T02:45:21.572Z,34.45
2023-05-05T02:46:21.665Z,34.41
2023-05-05T02:47:21.592Z,34.48
2023-05-05T02:48:21.599Z,34.40
2023-05-05T02:49:21.597Z,34.41
2023-05-05T02:50:21.579Z,34.44
2023-05-05T02:51:21.584Z,34.53
2023-05-05T02:52:21.615Z,34.52
2023-05-05T02:53:21.565Z,34.50
2023-05-05T02:54:21.568Z,34.47
2023-05-05T02:55:21.566Z,34.47
2023-05-05T02:56:21.601Z,34.50
2023-05-05T02:57:21.594Z,34.48
2023-05-05T02:58:22.146Z,34.49
2023-05-05T02:59:21.602Z,34.46
2023-05-05T03:00:21.584Z,34.38
2023-05-05T03:01:21.596Z,34.38
2023-05-05T03:02:21.618Z,34.37
2023-05-05T03:03:21.753Z,34.38
2023-05-05T03:04:21.603Z,34.39
2023-05-05T03:05:21.583Z,34.32
2023-05-05T03:06:21.555Z,34.33
2023-05-05T03:07:21.557Z,34.34
2023-05-05T03:08:21.576Z,34.31
2023-05-05T03:09:21.555Z,34.26
2023-05-05T03:10:21.578Z,34.28
2023-05-05T03:11:21.534Z,34.35
2023-05-05T03:12:21.556Z,34.28
2023-05-05T03:13:21.554Z,34.28
2023-05-05T03:14:21.553Z,34.30
2023-05-05T03:15:21.543Z,34.25
2023-05-05T03:16:21.609Z,34.23
2023-05-05T03:17:21.641Z,34.26
2023-05-05T03:18:21.590Z,34.23
2023-05-05T03:19:21.602Z,34.30
2023-05-05T03:20:21.613Z,34.24
2023-05-05T03:21:21.628Z,34.23
2023-05-05T03:22:21.587Z,34.25
2023-05-05T03:23:21.624Z,34.26
2023-05-05T03:24:21.591Z,34.17
2023-05-05T03:25:21.651Z,34.18
2023-05-05T03:26:21.627Z,34.14
2023-05-05T03:27:21.651Z,34.16
2023-05-05T03:28:21.674Z,34.08
2023-05-05T03:29:21.650Z,34.10
2023-05-05T03:30:21.674Z,34.12
2023-05-05T03:31:21.704Z,34.09
2023-05-05T03:32:21.688Z,34.10
2023-05-05T03:33:21.699Z,34.13
2023-05-05T03:34:21.714Z,34.11
2023-05-05T03:35:21.663Z,34.09
2023-05-05T03:36:21.674Z,34.10
2023-05-05T03:37:21.683Z,34.10
2023-05-05T03:38:21.736Z,34.04
2023-05-05T03:39:21.681Z,34.05
2023-05-05T03:40:29.611Z,34.01
2023-05-05T03:41:22.710Z,33.96
2023-05-05T03:42:21.698Z,33.98
2023-05-05T03:43:21.684Z,33.97
2023-05-05T03:44:21.686Z,33.94
2023-05-05T03:45:21.668Z,33.97
2023-05-05T03:46:21.742Z,33.95
2023-05-05T03:47:21.687Z,33.92
2023-05-05T03:48:21.645Z,33.96
2023-05-05T03:49:21.636Z,33.91
2023-05-05T03:50:21.660Z,33.83
2023-05-05T03:51:21.648Z,33.79
2023-05-05T03:52:21.666Z,33.89
2023-05-05T03:53:21.646Z,33.75
2023-05-05T03:54:21.606Z,33.77
2023-05-05T03:55:21.622Z,33.91
2023-05-05T03:56:21.638Z,33.93
2023-05-05T03:57:21.587Z,33.97
2023-05-05T03:58:21.595Z,34.07
2023-05-05T03:59:21.612Z,34.06
2023-05-05T04:00:21.604Z,34.08
2023-05-05T04:01:21.631Z,34.05
2023-05-05T04:02:21.615Z,34.08
2023-05-05T04:03:21.745Z,34.08
2023-05-05T04:04:21.586Z,34.07
2023-05-05T04:05:21.608Z,34.04
2023-05-05T04:06:21.590Z,34.04
2023-05-05T04:07:21.598Z,33.97
2023-05-05T04:08:21.563Z,33.94
2023-05-05T04:09:21.584Z,33.95
2023-05-05T04:10:21.588Z,33.99
2023-05-05T04:11:21.619Z,33.98
2023-05-05T04:12:21.589Z,34.03
2023-05-05T04:13:21.570Z,33.99
2023-05-05T04:14:21.586Z,34.01
2023-05-05T04:15:21.573Z,34.06
2023-05-05T04:16:21.690Z,34.07
2023-05-05T04:17:21.613Z,34.06
2023-05-05T04:18:21.623Z,34.08
2023-05-05T04:19:21.612Z,34.11
2023-05-05T04:20:21.626Z,34.10
2023-05-05T04:21:21.628Z,34.12
2023-05-05T04:22:21.638Z,34.11
2023-05-05T04:23:21.638Z,34.11
2023-05-05T04:24:21.652Z,34.13
2023-05-05T04:25:21.650Z,34.12
2023-05-05T04:26:21.629Z,34.12
2023-05-05T04:27:21.620Z,34.15
2023-05-05T04:28:22.264Z,34.14
2023-05-05T04:29:21.641Z,34.14
2023-05-05T04:30:21.639Z,34.13
2023-05-05T04:31:21.740Z,34.14
2023-05-05T04:32:21.647Z,34.14
2023-05-05T04:33:21.641Z,34.11
2023-05-05T04:34:21.606Z,34.09
2023-05-05T04:35:21.619Z,34.06
2023-05-05T04:36:21.616Z,34.03
2023-05-05T04:37:21.686Z,34.03
2023-05-05T04:38:21.672Z,34.06
2023-05-05T04:39:21.679Z,34.11
2023-05-05T04:40:21.687Z,34.10
2023-05-05T04:41:21.710Z,34.10
2023-05-05T04:42:21.742Z,34.13
2023-05-05T04:43:21.740Z,34.12
2023-05-05T04:44:21.723Z,34.13
2023-05-05T04:45:21.752Z,34.13
2023-05-05T04:46:21.806Z,34.16
2023-05-05T04:47:21.766Z,34.14
2023-05-05T04:48:21.753Z,34.16
2023-05-05T04:49:21.728Z,34.22
2023-05-05T04:50:21.756Z,34.22
2023-05-05T04:51:21.753Z,34.24
2023-05-05T04:52:21.755Z,34.24
2023-05-05T04:53:21.749Z,34.25
2023-05-05T04:54:21.740Z,34.27
2023-05-05T04:55:21.720Z,34.28
2023-05-05T04:56:21.717Z,34.27
2023-05-05T04:57:21.737Z,34.28
2023-05-05T04:58:21.725Z,34.33
2023-05-05T04:59:21.717Z,34.32
2023-05-05T05:00:21.700Z,34.33
2023-05-05T05:01:29.829Z,34.36
2023-05-05T05:02:21.980Z,34.40
2023-05-05T05:03:21.817Z,34.44
2023-05-05T05:04:21.713Z,34.49
2023-05-05T05:05:21.727Z,34.23
2023-05-05T05:06:21.735Z,34.13
2023-05-05T05:07:21.698Z,34.32
2023-05-05T05:08:21.691Z,34.59
2023-05-05T05:09:21.645Z,34.93
2023-05-05T05:10:21.648Z,35.21
2023-05-05T05:11:21.710Z,35.40
2023-05-05T05:12:21.778Z,35.66
2023-05-05T05:13:21.848Z,35.94
2023-05-05T05:14:21.855Z,36.11
2023-05-05T05:15:21.841Z,36.20
2023-05-05T05:16:21.832Z,36.40
2023-05-05T05:17:21.808Z,36.52
2023-05-05T05:18:21.813Z,36.66
2023-05-05T05:19:21.822Z,36.73
2023-05-05T05:20:21.837Z,36.83
2023-05-05T05:21:21.843Z,36.91
2023-05-05T05:22:21.893Z,36.93
2023-05-05T05:23:21.856Z,36.88
2023-05-05T05:24:21.858Z,36.82
2023-05-05T05:25:21.854Z,37.07
2023-05-05T05:26:21.862Z,37.31
2023-05-05T05:27:21.937Z,37.44
2023-05-05T05:28:21.925Z,37.82
2023-05-05T05:29:22.007Z,37.86
2023-05-05T05:30:21.980Z,37.68
2023-05-05T05:31:22.103Z,37.41
2023-05-05T05:32:22.259Z,37.52
2023-05-05T05:33:22.118Z,37.38
2023-05-05T05:34:22.140Z,37.60
2023-05-05T05:35:22.238Z,37.73
2023-05-05T05:36:22.322Z,38.08
2023-05-05T05:37:22.878Z,38.02
2023-05-05T05:38:22.436Z,38.03
2023-05-05T05:39:22.370Z,37.94
2023-05-05T05:40:22.391Z,37.92
2023-05-05T05:41:22.449Z,38.23
2023-05-05T05:42:22.499Z,38.24
2023-05-05T05:43:22.484Z,38.26
2023-05-05T05:44:22.548Z,38.63
2023-05-05T05:45:22.632Z,38.78
2023-05-05T05:47:41.785Z,37.99
2023-05-05T05:48:41.584Z,38.04
2023-05-05T05:49:41.610Z,37.99
2023-05-05T05:50:41.578Z,38.16
2023-05-05T05:51:41.562Z,38.27
2023-05-05T05:52:41.810Z,38.22
2023-05-05T05:53:41.604Z,38.11
2023-05-05T05:54:41.529Z,38.55
2023-05-05T05:55:41.515Z,38.71
2023-05-05T05:56:41.526Z,38.84
2023-05-05T05:57:42.457Z,38.76
2023-05-05T05:58:41.486Z,38.56
2023-05-05T05:59:41.548Z,38.57
2023-05-05T06:00:41.483Z,38.40
2023-05-05T06:01:41.504Z,38.14
2023-05-05T06:02:41.524Z,38.11
2023-05-05T06:03:41.511Z,38.15
2023-05-05T06:04:41.546Z,38.20
2023-05-05T06:05:41.493Z,38.25
2023-05-05T06:06:41.440Z,38.41
2023-05-05T06:07:41.819Z,38.44
2023-05-05T06:08:41.410Z,38.43
2023-05-05T06:09:41.394Z,38.44
2023-05-05T06:10:41.407Z,38.52
2023-05-05T06:11:41.421Z,38.42
2023-05-05T06:12:41.771Z,38.43
2023-05-05T06:13:41.385Z,38.43
2023-05-05T06:14:41.364Z,38.40
2023-05-05T06:15:41.412Z,38.37
2023-05-05T06:16:41.341Z,38.37
2023-05-05T06:17:41.404Z,38.36
2023-05-05T06:18:41.373Z,38.35
2023-05-05T06:19:41.323Z,38.30
2023-05-05T06:20:41.383Z,38.46
2023-05-05T06:21:41.327Z,38.44
2023-05-05T06:22:41.333Z,38.44
2023-05-05T06:23:41.338Z,38.53
2023-05-05T06:24:41.342Z,38.19
2023-05-05T06:25:41.356Z,38.05
2023-05-05T06:26:41.385Z,38.05
2023-05-05T06:27:41.456Z,38.43
2023-05-05T06:28:41.512Z,38.37
2023-05-05T06:29:41.552Z,38.25
2023-05-05T06:30:41.574Z,38.37
2023-05-05T06:31:41.644Z,38.30
2023-05-05T06:32:41.701Z,38.11
2023-05-05T06:33:41.720Z,38.10
2023-05-05T06:34:41.774Z,38.22
2023-05-05T06:35:41.819Z,38.23
2023-05-05T06:36:41.937Z,38.05
2023-05-05T06:37:41.903Z,38.20
2023-05-05T06:38:42.014Z,38.25
2023-05-05T06:39:42.027Z,38.11
2023-05-05T06:40:41.995Z,38.37
2023-05-05T06:41:42.050Z,37.91
2023-05-05T06:42:42.053Z,37.52
2023-05-05T06:43:42.056Z,37.52
2023-05-05T06:44:42.058Z,37.50
2023-05-05T06:45:43.657Z,37.63
2023-05-05T06:46:42.165Z,38.06
2023-05-05T06:47:42.410Z,38.38
2023-05-05T06:48:42.212Z,38.30
2023-05-05T06:49:42.299Z,38.25
2023-05-05T06:50:42.303Z,37.86
2023-05-05T06:51:42.930Z,37.74
2023-05-05T06:52:42.836Z,37.37
2023-05-05T06:53:42.475Z,37.51
2023-05-05T06:54:42.507Z,37.54
2023-05-05T06:55:42.574Z,37.65
2023-05-05T06:56:42.611Z,37.69
2023-05-05T06:57:42.723Z,37.69
2023-05-05T06:58:42.710Z,37.49
2023-05-05T06:59:42.713Z,37.21
2023-05-05T07:00:42.808Z,37.30
2023-05-05T07:01:42.853Z,36.95
2023-05-05T07:02:43.359Z,36.80
2023-05-05T07:03:43.047Z,36.78
2023-05-05T07:04:43.022Z,37.16
2023-05-05T07:05:43.072Z,36.97
2023-05-05T07:06:43.112Z,36.83
2023-05-05T07:07:43.223Z,37.03
2023-05-05T07:08:43.218Z,37.76
2023-05-05T07:09:43.278Z,37.46
2023-05-05T07:10:43.323Z,37.28
2023-05-05T07:11:43.296Z,37.28
2023-05-05T07:12:43.518Z,37.08
2023-05-05T07:13:43.356Z,36.71
2023-05-05T07:14:43.356Z,37.10
2023-05-05T07:15:43.386Z,36.30
2023-05-05T07:16:43.497Z,36.20
2023-05-05T07:17:43.657Z,36.17
2023-05-05T07:18:43.430Z,36.12
2023-05-05T07:19:43.592Z,35.94
2023-05-05T07:20:43.400Z,36.16
2023-05-05T07:21:43.405Z,36.28
2023-05-05T07:22:43.432Z,36.06
2023-05-05T07:23:43.553Z,35.92
2023-05-05T07:24:43.429Z,36.36
2023-05-05T07:25:43.531Z,36.01
2023-05-05T07:26:43.531Z,36.24
2023-05-05T07:27:43.805Z,36.30
2023-05-05T07:28:43.578Z,36.03
2023-05-05T07:29:43.636Z,36.18
2023-05-05T07:30:43.588Z,36.08
2023-05-05T07:31:43.652Z,35.98
2023-05-05T07:32:43.747Z,35.83
2023-05-05T07:33:43.768Z,35.90
2023-05-05T07:34:43.791Z,35.68
2023-05-05T07:35:43.882Z,35.74
2023-05-05T07:36:43.863Z,35.81
2023-05-05T07:37:43.995Z,35.60
2023-05-05T07:38:43.952Z,35.62
2023-05-05T07:39:44.081Z,35.87
2023-05-05T07:40:44.073Z,35.44
2023-05-05T07:41:44.031Z,35.37
2023-05-05T07:42:44.303Z,35.18
2023-05-05T07:43:44.686Z,35.11
2023-05-05T07:44:44.173Z,34.95
2023-05-05T07:45:44.175Z,35.13
2023-05-05T07:46:44.191Z,35.06
2023-05-05T07:47:44.216Z,35.02
2023-05-05T07:48:44.226Z,34.59
2023-05-05T07:49:44.249Z,34.07
2023-05-05T07:50:44.241Z,33.26
2023-05-05T07:51:44.331Z,33.55
2023-05-05T07:52:48.277Z,33.75
2023-05-05T07:53:45.327Z,33.97
2023-05-05T07:54:44.351Z,33.96
2023-05-05T07:55:44.456Z,34.26
2023-05-05T07:56:44.441Z,34.52
2023-05-05T07:57:44.529Z,32.37
2023-05-05T07:58:44.569Z,32.69
2023-05-05T07:59:44.633Z,33.42
2023-05-05T08:00:44.697Z,34.52
2023-05-05T08:01:44.755Z,34.37
2023-05-05T08:02:44.892Z,33.26
2023-05-05T08:03:44.937Z,32.34
2023-05-05T08:04:44.949Z,32.21
2023-05-05T08:05:44.983Z,32.37
2023-05-05T08:06:45.021Z,32.40
2023-05-05T08:07:45.042Z,32.56
2023-05-05T08:08:45.058Z,32.51
2023-05-05T08:09:45.110Z,32.72
2023-05-05T08:10:45.186Z,33.14
2023-05-05T08:11:45.340Z,33.54
2023-05-05T08:12:45.382Z,33.54
2023-05-05T08:13:45.350Z,33.05
2023-05-05T08:14:45.409Z,32.89
2023-05-05T08:15:45.567Z,33.10
2023-05-05T08:16:45.594Z,32.71
2023-05-05T08:17:45.663Z,32.39
2023-05-05T08:18:45.672Z,32.89
2023-05-05T08:19:45.702Z,32.09
2023-05-05T08:20:45.792Z,31.85
2023-05-05T08:21:47.711Z,31.44
2023-05-05T08:22:45.890Z,31.27
2023-05-05T08:23:45.934Z,31.22
2023-05-05T08:24:45.926Z,30.95
2023-05-05T08:25:45.982Z,30.92
2023-05-05T08:26:46.001Z,31.18
2023-05-05T08:27:46.089Z,31.21
2023-05-05T08:28:46.037Z,31.34
2023-05-05T08:29:46.030Z,31.44
2023-05-05T08:30:46.078Z,31.36
2023-05-05T08:31:46.097Z,31.47
2023-05-05T08:32:46.365Z,31.72
2023-05-05T08:33:46.108Z,31.34
2023-05-05T08:34:46.112Z,30.56
2023-05-05T08:35:46.208Z,30.78
2023-05-05T08:36:46.197Z,30.87
2023-05-05T08:37:46.195Z,30.84
2023-05-05T08:38:46.182Z,31.07
2023-05-05T08:39:46.151Z,30.98
2023-05-05T08:40:46.255Z,34.01
2023-05-05T08:41:46.253Z,34.30
2023-05-05T08:42:46.336Z,34.12
2023-05-05T08:43:46.379Z,34.27
2023-05-05T08:44:46.342Z,34.25
2023-05-05T08:45:46.348Z,34.13
2023-05-05T08:46:46.396Z,33.90
2023-05-05T08:47:46.521Z,33.93
2023-05-05T08:48:46.454Z,34.24
2023-05-05T08:49:46.475Z,34.11
2023-05-05T08:50:46.480Z,33.83
2023-05-05T08:51:46.503Z,33.67
2023-05-05T08:53:46.861Z,33.40
2023-05-05T08:54:46.546Z,33.49
2023-05-05T08:55:46.645Z,33.28
2023-05-05T08:56:46.625Z,33.10
2023-05-05T08:57:46.629Z,33.19
2023-05-05T08:58:47.300Z,33.62
2023-05-05T08:59:48.049Z,33.82
2023-05-05T09:00:46.800Z,33.12
2023-05-05T09:01:46.809Z,33.84
2023-05-05T09:02:46.929Z,33.79
2023-05-05T09:03:47.350Z,33.90
2023-05-05T09:04:46.832Z,33.65
2023-05-05T09:05:46.937Z,34.03
2023-05-05T09:06:46.943Z,34.40
2023-05-05T09:07:47.061Z,34.18
2023-05-05T09:08:47.375Z,33.24
2023-05-05T09:09:46.969Z,33.10
2023-05-05T09:10:47.015Z,33.10
2023-05-05T09:11:47.036Z,33.26
2023-05-05T09:12:47.131Z,33.10
2023-05-05T09:13:47.309Z,32.53
2023-05-05T09:14:47.150Z,31.93
2023-05-05T09:15:47.219Z,31.64
2023-05-05T09:16:47.232Z,32.03
2023-05-05T09:17:47.325Z,32.75
2023-05-05T09:18:47.355Z,32.68
2023-05-05T09:19:47.237Z,31.93
2023-05-05T09:20:47.282Z,31.84
2023-05-05T09:21:47.334Z,32.27
2023-05-05T09:22:47.429Z,32.43
2023-05-05T09:23:47.836Z,32.01
2023-05-05T09:24:47.437Z,32.32
2023-05-05T09:25:47.454Z,32.74
2023-05-05T09:26:47.434Z,32.35
2023-05-05T09:27:47.446Z,32.48
2023-05-05T09:28:47.889Z,32.96
2023-05-05T09:29:47.487Z,33.11
2023-05-05T09:30:47.528Z,32.91
2023-05-05T09:31:47.621Z,32.50
2023-05-05T09:32:47.555Z,32.88
2023-05-05T09:33:47.856Z,32.66
2023-05-05T09:34:47.569Z,32.63
2023-05-05T09:35:48.485Z,32.85
2023-05-05T09:36:47.520Z,32.51
2023-05-05T09:37:47.481Z,32.21
2023-05-05T09:38:47.481Z,32.52
2023-05-05T09:39:47.560Z,32.99
2023-05-05T09:40:47.495Z,32.88
2023-05-05T09:41:47.447Z,33.09
2023-05-05T09:42:47.498Z,33.09
2023-05-05T09:43:47.862Z,32.94
2023-05-05T09:44:47.469Z,32.94
2023-05-05T09:45:47.454Z,33.24
2023-05-05T09:46:47.526Z,33.35
2023-05-05T09:47:48.078Z,33.79
2023-05-05T09:48:47.856Z,32.93
2023-05-05T09:49:47.675Z,32.62
2023-05-05T09:50:47.731Z,34.39
2023-05-05T09:51:47.774Z,32.81
2023-05-05T09:52:48.164Z,32.29
2023-05-05T09:53:47.904Z,32.59
2023-05-05T09:54:47.922Z,32.38
2023-05-05T09:55:47.959Z,32.21
2023-05-05T09:56:47.908Z,33.12
2023-05-05T09:57:47.925Z,33.80
2023-05-05T09:58:48.459Z,33.72
2023-05-05T09:59:47.943Z,33.88
2023-05-05T10:00:48.019Z,33.53
2023-05-05T10:01:48.020Z,33.48
2023-05-05T10:02:48.030Z,33.02
2023-05-05T10:03:48.046Z,32.92
2023-05-05T10:04:48.006Z,33.02
2023-05-05T10:05:48.013Z,32.81
2023-05-05T10:06:48.012Z,32.99
2023-05-05T10:07:48.079Z,33.00
2023-05-05T10:08:48.062Z,33.05
2023-05-05T10:09:48.100Z,33.14
2023-05-05T10:10:48.235Z,33.12
2023-05-05T10:11:48.835Z,33.74
2023-05-05T10:12:48.276Z,33.90
2023-05-05T10:13:48.344Z,33.01
2023-05-05T10:14:48.339Z,32.26
2023-05-05T10:15:48.386Z,32.20
2023-05-05T10:16:48.416Z,31.92
2023-05-05T10:18:02.758Z,32.21
2023-05-05T10:18:49.462Z,32.56
2023-05-05T10:19:48.610Z,32.60
2023-05-05T10:20:48.418Z,31.76
2023-05-05T10:21:48.430Z,31.63
2023-05-05T10:22:48.404Z,31.73
2023-05-05T10:23:48.364Z,31.75
2023-05-05T10:24:48.397Z,32.37
2023-05-05T10:25:48.390Z,33.12
2023-05-05T10:26:48.398Z,32.96
2023-05-05T10:27:48.452Z,33.13
2023-05-05T10:28:48.882Z,33.01
2023-05-05T10:29:48.475Z,33.17
2023-05-05T10:30:48.518Z,32.81
2023-05-05T10:31:48.606Z,32.74
2023-05-05T10:32:59.971Z,32.97
2023-05-05T10:33:49.658Z,32.62
2023-05-05T10:34:48.624Z,32.53
2023-05-05T10:35:48.663Z,32.25
2023-05-05T10:36:48.613Z,32.31
2023-05-05T10:37:48.626Z,32.69
2023-05-05T10:38:48.866Z,32.88
2023-05-05T10:39:48.591Z,32.32
2023-05-05T10:40:48.591Z,32.32
2023-05-05T10:41:48.637Z,32.02
2023-05-05T10:42:48.542Z,32.88
2023-05-05T10:43:48.865Z,31.99
2023-05-05T10:44:48.605Z,33.51
2023-05-05T10:45:48.638Z,32.54
2023-05-05T10:46:48.530Z,33.21
2023-05-05T10:47:48.652Z,32.48
2023-05-05T10:48:48.938Z,32.80
2023-05-05T10:49:48.533Z,32.34
2023-05-05T10:50:48.489Z,32.95
2023-05-05T10:51:48.530Z,33.55
2023-05-05T10:52:48.495Z,33.64
2023-05-05T10:53:48.581Z,33.59
2023-05-05T10:54:48.560Z,33.06
2023-05-05T10:55:48.634Z,32.80
2023-05-05T10:56:48.579Z,33.15
2023-05-05T10:57:48.643Z,33.16
2023-05-05T10:58:59.717Z,32.85
2023-05-05T10:59:49.643Z,32.22
2023-05-05T11:00:49.191Z,32.50
2023-05-05T11:01:48.628Z,32.38
2023-05-05T11:02:48.647Z,32.36
2023-05-05T11:03:48.700Z,32.71
2023-05-05T11:04:49.444Z,32.85
2023-05-05T11:05:48.582Z,32.70
2023-05-05T11:06:48.561Z,32.56
2023-05-05T11:07:48.691Z,32.54
2023-05-05T11:08:48.551Z,32.58
2023-05-05T11:09:48.589Z,32.59
2023-05-05T11:10:48.634Z,32.70
2023-05-05T11:11:48.558Z,32.67
2023-05-05T11:12:48.569Z,32.70
2023-05-05T11:13:48.524Z,32.66
2023-05-05T11:14:48.901Z,32.97
2023-05-05T11:15:48.550Z,32.91
2023-05-05T11:16:48.553Z,32.80
2023-05-05T11:17:48.613Z,32.80
2023-05-05T11:18:48.476Z,32.80
2023-05-05T11:19:48.550Z,33.07
2023-05-05T11:20:48.477Z,32.83
2023-05-05T11:21:48.456Z,32.82
2023-05-05T11:22:48.440Z,32.79
2023-05-05T11:23:48.497Z,32.82
2023-05-05T11:24:48.494Z,32.77
2023-05-05T11:25:48.449Z,32.81
2023-05-05T11:26:48.433Z,32.76
2023-05-05T11:27:48.468Z,32.77
2023-05-05T11:28:48.465Z,32.86
2023-05-05T11:29:50.294Z,32.85
2023-05-05T11:30:48.487Z,32.85
2023-05-05T11:31:48.448Z,33.00
2023-05-05T11:32:48.534Z,33.42
2023-05-05T11:33:48.463Z,33.39
2023-05-05T11:34:48.860Z,33.23
2023-05-05T11:35:48.412Z,32.68
2023-05-05T11:36:48.434Z,32.92
2023-05-05T11:37:48.430Z,32.56
2023-05-05T11:38:48.385Z,32.81
2023-05-05T11:39:48.968Z,32.81
2023-05-05T11:40:48.411Z,32.78
2023-05-05T11:41:48.401Z,32.46
2023-05-05T11:42:48.361Z,32.24
2023-05-05T11:43:48.382Z,32.39
2023-05-05T11:44:48.377Z,32.49
2023-05-05T11:45:48.394Z,32.40
2023-05-05T11:46:48.327Z,32.37
2023-05-05T11:47:48.356Z,32.28
2023-05-05T11:48:48.309Z,32.23
2023-05-05T11:49:48.305Z,32.24
2023-05-05T11:50:48.325Z,32.25
2023-05-05T11:51:48.328Z,32.24
2023-05-05T11:52:48.268Z,32.24
2023-05-05T11:53:48.270Z,32.27
2023-05-05T11:54:48.299Z,32.39
2023-05-05T11:55:48.358Z,32.51
2023-05-05T11:56:48.268Z,32.44
2023-05-05T11:57:48.240Z,32.44
2023-05-05T11:58:48.209Z,32.46
2023-05-05T11:59:49.554Z,32.54
2023-05-05T12:00:48.224Z,32.40
2023-05-05T12:01:48.208Z,32.53
2023-05-05T12:02:48.277Z,32.65
2023-05-05T12:03:48.358Z,32.62
2023-05-05T12:04:48.211Z,32.56
2023-05-05T12:05:48.214Z,32.63
2023-05-05T12:06:48.205Z,32.65
2023-05-05T12:07:48.156Z,32.62
2023-05-05T12:08:48.158Z,32.60
2023-05-05T12:09:48.144Z,32.57
2023-05-05T12:10:48.209Z,32.60
2023-05-05T12:11:48.117Z,32.56
2023-05-05T12:12:48.550Z,32.60
2023-05-05T12:13:48.145Z,32.68
2023-05-05T12:14:48.169Z,32.75
2023-05-05T12:15:48.128Z,32.69
2023-05-05T12:16:48.177Z,32.79
2023-05-05T12:17:48.103Z,32.81
2023-05-05T12:18:48.113Z,32.77
2023-05-05T12:19:48.117Z,32.78
2023-05-05T12:20:48.084Z,32.75
2023-05-05T12:21:48.119Z,32.73
2023-05-05T12:22:48.074Z,32.80
2023-05-05T12:23:48.069Z,32.86
2023-05-05T12:24:48.087Z,32.82
2023-05-05T12:25:48.050Z,32.81
2023-05-05T12:26:48.060Z,32.83
2023-05-05T12:27:48.105Z,32.82
2023-05-05T12:28:48.037Z,32.84
2023-05-05T12:29:48.044Z,32.75
2023-05-05T12:30:48.030Z,32.76
2023-05-05T12:31:48.097Z,32.77
2023-05-05T12:32:48.029Z,32.61
2023-05-05T12:33:47.993Z,32.94
2023-05-05T12:34:48.013Z,33.11
2023-05-05T12:35:47.972Z,33.22
2023-05-05T12:36:47.952Z,33.21
2023-05-05T12:37:47.973Z,33.37
2023-05-05T12:38:48.002Z,33.60
2023-05-05T12:39:47.978Z,33.59
2023-05-05T12:40:47.961Z,33.76
2023-05-05T12:41:47.919Z,33.66
2023-05-05T12:42:47.961Z,34.25
2023-05-05T12:43:47.971Z,34.34
2023-05-05T12:44:47.910Z,33.42
2023-05-05T12:45:48.019Z,33.23
2023-05-05T12:46:48.044Z,33.01
2023-05-05T12:47:48.115Z,32.86
2023-05-05T12:48:48.462Z,32.89
2023-05-05T12:49:48.215Z,33.09
2023-05-05T12:50:48.254Z,33.48
2023-05-05T12:51:48.325Z,34.51
2023-05-05T12:52:48.391Z,35.06
2023-05-05T12:53:48.480Z,36.07
2023-05-05T12:54:48.482Z,36.46